Time;durP1;ratioP1;P1;durP2;ratioP2;P2;SDS_P1;SDS_P2;PMS_P1;PMS_P2;Temp;Humidity;BMP_temperature;BMP_pressure;BME280_temperature;BME280_humidity;BME280_pressure;Samples;Min_cycle;Max_cycle;Signal;HPM_P1;HPM_P2
2023/07/12 00:00:28;;;;;;;3.50;1.70;;;;;;;21.64;100.00;100048.63;690230;28;1103;-62
2023/07/12 00:00:49;;;;;;;4.43;1.70;;;;;;;21.66;100.00;100041.38;686601;28;1659;-63
2023/07/12 00:01:11;;;;;;;3.28;1.58;;;;;;;21.66;100.00;100045.88;689326;28;4524;-61
2023/07/12 00:01:31;;;;;;;3.00;1.70;;;;;;;21.71;100.00;100046.41;689562;28;920;-62
2023/07/12 00:01:52;;;;;;;3.47;1.80;;;;;;;21.66;100.00;100045.88;688988;28;916;-62
2023/07/12 00:02:12;;;;;;;3.30;1.50;;;;;;;21.73;100.00;100041.88;690124;28;884;-62
2023/07/12 00:02:33;;;;;;;3.92;1.63;;;;;;;21.77;100.00;100041.59;689682;28;860;-62
2023/07/12 00:02:58;;;;;;;4.47;1.55;;;;;;;21.72;100.00;100043.69;688776;28;1444;-62
2023/07/12 00:03:18;;;;;;;3.13;1.50;;;;;;;21.76;100.00;100045.19;690291;28;1272;-63
2023/07/12 00:03:39;;;;;;;3.50;1.60;;;;;;;21.70;100.00;100040.25;687923;28;1646;-63
2023/07/12 00:03:59;;;;;;;2.92;1.40;;;;;;;21.72;100.00;100043.69;689255;28;1353;-63
2023/07/12 00:04:20;;;;;;;3.50;1.50;;;;;;;21.70;100.00;100045.56;689751;28;4551;-62
2023/07/12 00:04:40;;;;;;;3.28;1.65;;;;;;;21.66;100.00;100037.88;688879;28;1597;-63
2023/07/12 00:05:01;;;;;;;2.60;1.57;;;;;;;21.66;100.00;100052.03;690349;28;1201;-62
2023/07/12 00:05:24;;;;;;;3.55;1.50;;;;;;;21.63;100.00;100041.59;690299;28;793;-62
2023/07/12 00:05:46;;;;;;;3.45;1.50;;;;;;;21.70;100.00;100040.25;686198;28;1775;-65
2023/07/12 00:06:27;;;;;;;3.90;1.67;;;;;;;21.57;100.00;100039.28;688485;28;3108;-62
2023/07/12 00:06:47;;;;;;;3.53;1.80;;;;;;;21.57;100.00;100037.50;687064;28;1606;-63
2023/07/12 00:07:12;;;;;;;3.43;1.60;;;;;;;21.55;100.00;100038.53;687406;28;1378;-63
2023/07/12 00:07:33;;;;;;;3.35;1.50;;;;;;;21.53;100.00;100037.75;688619;28;5766;-62
2023/07/12 00:07:53;;;;;;;3.22;1.45;;;;;;;21.54;100.00;100042.97;687825;28;1859;-62
2023/07/12 00:08:18;;;;;;;3.10;2.00;;;;;;;21.61;100.00;100043.47;690245;28;1019;-63
2023/07/12 00:08:40;;;;;;;2.75;1.48;;;;;;;21.70;100.00;100044.72;688447;28;1025;-62
2023/07/12 00:09:01;;;;;;;2.75;1.48;;;;;;;21.71;100.00;100038.44;689940;28;816;-62
2023/07/12 00:09:21;;;;;;;3.50;1.70;;;;;;;21.71;100.00;100041.09;689336;28;1138;-63
2023/07/12 00:09:41;;;;;;;4.00;1.63;;;;;;;21.72;100.00;100040.16;688898;28;1550;-63
2023/07/12 00:10:02;;;;;;;4.60;1.87;;;;;;;21.70;100.00;100040.25;688857;28;1054;-62
2023/07/12 00:10:28;;;;;;;4.05;1.60;;;;;;;21.65;100.00;100038.81;689246;28;4331;-62
2023/07/12 00:10:50;;;;;;;2.50;1.40;;;;;;;21.60;100.00;100036.47;688029;28;1551;-63
2023/07/12 00:11:20;;;;;;;3.00;1.52;;;;;;;21.56;100.00;100035.78;689404;28;924;-61
2023/07/12 00:11:41;;;;;;;3.45;1.73;;;;;;;21.55;100.00;100038.53;688688;28;1536;-62
2023/07/12 00:12:02;;;;;;;5.03;1.70;;;;;;;21.56;100.00;100040.25;688983;28;1400;-61
2023/07/12 00:12:22;;;;;;;4.15;1.80;;;;;;;21.60;100.00;100036.47;690019;28;966;-61
2023/07/12 00:12:43;;;;;;;4.03;1.70;;;;;;;21.57;100.00;100039.28;688951;28;1582;-62
2023/07/12 00:13:03;;;;;;;3.33;1.60;;;;;;;21.53;100.00;100043.94;689585;28;892;-62
2023/07/12 00:13:24;;;;;;;2.47;1.53;;;;;;;21.46;100.00;100036.38;689252;28;4493;-63
2023/07/12 00:13:45;;;;;;;3.30;1.98;;;;;;;21.40;100.00;100046.44;688264;28;1811;-62
2023/07/12 00:14:06;;;;;;;3.30;1.63;;;;;;;21.41;100.00;100040.19;689253;28;912;-63
2023/07/12 00:14:27;;;;;;;3.20;1.50;;;;;;;21.49;100.00;100044.16;689315;28;1974;-62
2023/07/12 00:14:47;;;;;;;2.93;1.50;;;;;;;21.53;100.00;100045.72;688783;28;1809;-62
2023/07/12 00:15:11;;;;;;;3.10;1.40;;;;;;;21.54;100.00;100047.44;689535;28;1353;-62
2023/07/12 00:15:33;;;;;;;3.25;1.40;;;;;;;21.57;100.00;100050.78;690059;28;923;-63
2023/07/12 00:15:54;;;;;;;3.60;1.60;;;;;;;21.57;100.00;100052.56;688970;28;1514;-62
2023/07/12 00:16:25;;;;;;;2.77;1.40;;;;;;;21.54;100.00;100050.94;688440;28;4387;-61
2023/07/12 00:16:45;;;;;;;2.92;1.30;;;;;;;21.63;100.00;100044.25;687954;28;1590;-63
2023/07/12 00:17:09;;;;;;;2.78;1.30;;;;;;;21.64;100.00;100051.28;690216;28;999;-62
2023/07/12 00:17:30;;;;;;;2.40;1.30;;;;;;;21.61;100.00;100048.78;689717;28;1586;-62
2023/07/12 00:17:52;;;;;;;3.00;1.33;;;;;;;21.56;100.00;100049.06;689108;28;1440;-63
2023/07/12 00:18:17;;;;;;;3.80;1.40;;;;;;;21.51;100.00;100042.28;689806;28;1117;-62
2023/07/12 00:18:37;;;;;;;4.05;1.50;;;;;;;21.59;100.00;100045.38;690101;28;952;-63
2023/07/12 00:18:57;;;;;;;3.13;1.70;;;;;;;21.62;100.00;100045.19;687957;28;1544;-63
2023/07/12 00:19:18;;;;;;;2.00;1.23;;;;;;;21.64;100.00;100043.31;689327;28;4510;-63
2023/07/12 00:19:38;;;;;;;2.43;1.20;;;;;;;21.64;100.00;100043.31;688875;28;3363;-62
2023/07/12 00:19:59;;;;;;;2.03;1.20;;;;;;;21.56;100.00;100041.09;689663;28;1369;-62
2023/07/12 00:20:29;;;;;;;2.90;1.30;;;;;;;21.52;100.00;100038.69;688800;28;931;-61
2023/07/12 00:20:51;;;;;;;2.53;1.20;;;;;;;21.54;100.00;100029.69;685579;28;987;-62
2023/07/12 00:21:15;;;;;;;2.72;1.20;;;;;;;21.58;100.00;100033.03;688953;28;861;-63
2023/07/12 00:21:35;;;;;;;3.00;1.33;;;;;;;21.52;100.00;100034.25;688657;28;1283;-62
2023/07/12 00:21:56;;;;;;;2.37;1.30;;;;;;;21.47;100.00;100030.13;686572;28;1744;-62
2023/07/12 00:22:16;;;;;;;2.20;1.20;;;;;;;21.43;100.00;100035.63;685555;28;4708;-62
2023/07/12 00:22:37;;;;;;;2.75;1.17;;;;;;;21.43;100.00;100027.66;687857;28;925;-62
2023/07/12 00:22:57;;;;;;;2.37;1.20;;;;;;;21.48;100.00;100022.06;688402;28;1688;-63
2023/07/12 00:23:19;;;;;;;1.73;1.10;;;;;;;21.46;100.00;100034.59;689980;28;1215;-62
2023/07/12 00:23:39;;;;;;;2.05;1.25;;;;;;;21.45;100.00;100032.88;687802;28;2116;-61
2023/07/12 00:24:01;;;;;;;2.78;1.23;;;;;;;21.43;100.00;100032.97;687329;28;1007;-61
2023/07/12 00:24:22;;;;;;;6.32;1.40;;;;;;;21.38;100.00;100032.41;690188;28;1212;-63
2023/07/12 00:24:42;;;;;;;2.10;1.20;;;;;;;21.46;100.00;100034.59;688195;28;1491;-64
2023/07/12 00:25:03;;;;;;;1.90;1.10;;;;;;;21.42;100.00;100028.59;690006;28;825;-62
2023/07/12 00:25:27;;;;;;;2.63;1.25;;;;;;;21.47;100.00;100024.81;689527;28;4489;-62
2023/07/12 00:25:49;;;;;;;2.97;1.25;;;;;;;21.46;100.00;100023.97;687768;28;1639;-63
2023/07/12 00:26:19;;;;;;;3.08;1.30;;;;;;;21.50;100.00;100021.97;689837;28;713;-63
2023/07/12 00:26:40;;;;;;;2.20;1.10;;;;;;;21.42;100.00;100033.06;688263;28;875;-62
2023/07/12 00:27:00;;;;;;;2.85;1.20;;;;;;;21.39;100.00;100028.78;689925;28;923;-62
2023/07/12 00:27:21;;;;;;;3.00;1.23;;;;;;;21.31;100.00;100024.88;689777;28;1314;-61
2023/07/12 00:27:41;;;;;;;2.67;1.45;;;;;;;21.29;100.00;100027.63;687806;28;1638;-62
2023/07/12 00:28:02;;;;;;;2.17;1.20;;;;;;;21.31;100.00;100025.75;688706;28;1421;-62
2023/07/12 00:28:25;;;;;;;2.08;1.20;;;;;;;21.29;100.00;100026.78;689304;28;4296;-62
2023/07/12 00:28:46;;;;;;;4.57;1.30;;;;;;;21.26;100.00;100033.13;687858;28;928;-61
2023/07/12 00:29:07;;;;;;;4.38;1.30;;;;;;;21.24;100.00;100040.34;686846;28;1204;-61
2023/07/12 00:29:30;;;;;;;2.42;1.30;;;;;;;21.19;100.00;100034.44;687187;28;968;-62
2023/07/12 00:29:51;;;;;;;2.30;1.30;;;;;;;21.16;100.00;100038.13;685773;28;1499;-61
2023/07/12 00:30:33;;;;;;;2.40;1.15;;;;;;;21.15;100.00;100038.22;688059;28;879;-62
2023/07/12 00:30:56;;;;;;;2.40;1.25;;;;;;;21.25;100.00;100039.38;687358;28;1726;-61
2023/07/12 00:31:16;;;;;;;2.25;1.20;;;;;;;21.24;100.00;100043.84;689203;28;4348;-61
2023/07/12 00:31:38;;;;;;;3.20;1.20;;;;;;;21.21;100.00;100044.03;687284;28;1702;-62
2023/07/12 00:31:59;;;;;;;2.90;1.30;;;;;;;21.19;100.00;100042.41;686193;28;1408;-61
2023/07/12 00:32:19;;;;;;;2.83;1.30;;;;;;;21.18;100.00;100046.00;686560;28;830;-61
2023/07/12 00:32:40;;;;;;;3.40;1.38;;;;;;;21.18;100.00;100046.00;682697;28;1950;-62
2023/07/12 00:33:04;;;;;;;3.03;1.33;;;;;;;21.14;100.00;100050.63;681373;28;1500;-61
2023/07/12 00:33:24;;;;;;;2.13;1.20;;;;;;;21.18;100.00;100048.66;682725;28;905;-61
2023/07/12 00:33:45;;;;;;;2.00;1.30;;;;;;;21.22;100.00;100050.19;683769;28;1469;-61
2023/07/12 00:34:06;;;;;;;2.83;1.30;;;;;;;21.24;100.00;100056.31;685472;28;1343;-61
2023/07/12 00:34:28;;;;;;;3.95;1.30;;;;;;;21.23;100.00;100060.75;684625;28;5251;-61
2023/07/12 00:34:48;;;;;;;2.83;1.20;;;;;;;21.19;100.00;100053.88;685755;28;1608;-61
2023/07/12 00:35:15;;;;;;;2.60;1.10;;;;;;;21.20;100.00;100060.09;688678;28;928;-61
2023/07/12 00:35:41;;;;;;;1.80;1.10;;;;;;;21.18;100.00;100059.31;689476;28;869;-61
2023/07/12 00:36:01;;;;;;;2.22;1.10;;;;;;;21.16;100.00;100055.91;686206;28;1278;-61
2023/07/12 00:36:28;;;;;;;2.77;1.17;;;;;;;21.18;100.00;100061.97;686837;28;932;-62
2023/07/12 00:36:48;;;;;;;2.53;1.10;;;;;;;21.26;100.00;100062.38;683952;28;2242;-61
2023/07/12 00:37:14;;;;;;;2.97;1.40;;;;;;;21.26;100.00;100060.56;683457;28;4525;-60
2023/07/12 00:37:37;;;;;;;2.55;1.38;;;;;;;21.26;100.00;100067.69;686684;28;1326;-61
2023/07/12 00:38:00;;;;;;;3.20;1.30;;;;;;;21.22;100.00;100060.84;686012;28;1437;-61
2023/07/12 00:38:23;;;;;;;3.47;1.50;;;;;;;21.22;100.00;100068.81;689216;28;1405;-61
2023/07/12 00:38:43;;;;;;;3.25;1.30;;;;;;;21.24;100.00;100066.94;687924;28;1563;-63
2023/07/12 00:39:05;;;;;;;3.17;1.30;;;;;;;21.28;100.00;100063.16;689307;28;1355;-62
2023/07/12 00:39:25;;;;;;;3.15;1.30;;;;;;;21.28;100.00;100068.47;687320;28;1917;-61
2023/07/12 00:39:46;;;;;;;3.28;1.30;;;;;;;21.21;100.00;100067.09;687953;28;1445;-61
2023/07/12 00:40:41;;;;;;;2.70;1.37;;;;;;;21.33;100.00;100063.72;688067;28;854;-63
2023/07/12 00:41:07;;;;;;;2.47;1.20;;;;;;;21.36;100.00;100068.84;688672;28;4848;-61
2023/07/12 00:41:32;;;;;;;2.30;1.20;;;;;;;21.40;100.00;100067.72;689927;28;951;-61
2023/07/12 00:42:29;;;;;;;2.42;1.27;;;;;;;21.37;100.00;100062.56;688634;28;1507;-62
2023/07/12 00:42:57;;;;;;;2.58;1.35;;;;;;;21.32;100.00;100058.47;688384;28;1594;-62
2023/07/12 00:43:25;;;;;;;2.95;1.30;;;;;;;21.27;100.00;100059.59;687377;28;2105;-62
2023/07/12 00:43:53;;;;;;;2.70;1.30;;;;;;;21.25;100.00;100052.66;684051;28;1488;-61
2023/07/12 00:44:31;;;;;;;2.17;1.15;;;;;;;21.19;100.00;100053.88;685480;28;860;-62
2023/07/12 00:44:56;;;;;;;2.50;1.20;;;;;;;21.21;100.00;100053.78;683804;28;1539;-63
2023/07/12 00:45:16;;;;;;;1.75;1.20;;;;;;;21.30;100.00;100049.75;685011;28;1293;-62
2023/07/12 00:45:38;;;;;;;2.67;1.20;;;;;;;21.29;100.00;100048.03;688379;28;1514;-62
2023/07/12 00:46:06;;;;;;;3.63;1.35;;;;;;;21.25;100.00;100057.97;688556;28;1526;-62
2023/07/12 00:46:46;;;;;;;3.78;1.30;;;;;;;21.23;100.00;100055.41;685207;28;4389;-61
2023/07/12 00:47:11;;;;;;;2.42;1.20;;;;;;;21.30;100.00;100058.56;683452;28;944;-62
2023/07/12 00:47:33;;;;;;;2.30;1.20;;;;;;;21.24;100.00;100059.81;686410;28;1355;-62
2023/07/12 00:47:53;;;;;;;2.38;1.23;;;;;;;21.18;100.00;100057.47;682645;28;1435;-62
2023/07/12 00:48:15;;;;;;;2.60;1.20;;;;;;;21.16;100.00;100061.22;685012;28;1075;-61
2023/07/12 00:48:35;;;;;;;2.17;1.20;;;;;;;21.13;100.00;100062.25;687356;28;900;-61
2023/07/12 00:48:55;;;;;;;2.90;1.37;;;;;;;21.16;100.00;100061.22;684821;28;1540;-61
2023/07/12 00:49:16;;;;;;;2.80;1.40;;;;;;;21.22;100.00;100063.50;689191;28;4421;-61
2023/07/12 00:49:36;;;;;;;2.75;1.30;;;;;;;21.21;100.00;100062.66;687122;28;1419;-61
2023/07/12 00:49:57;;;;;;;2.07;1.20;;;;;;;21.20;100.00;100060.09;688463;28;1484;-61
2023/07/12 00:50:19;;;;;;;2.60;1.25;;;;;;;21.20;100.00;100060.09;686583;28;1600;-61
2023/07/12 00:50:42;;;;;;;2.08;1.20;;;;;;;21.14;100.00;100057.78;685960;28;1547;-62
2023/07/12 00:51:21;;;;;;;2.22;1.15;;;;;;;21.09;100.00;100060.72;683908;28;1171;-61
2023/07/12 00:52:05;;;;;;;2.05;1.10;;;;;;;21.14;100.00;100049.78;684936;28;1449;-62
2023/07/12 00:52:26;;;;;;;1.92;1.00;;;;;;;21.15;100.00;100052.34;686657;28;4480;-61
2023/07/12 00:52:46;;;;;;;2.40;1.20;;;;;;;21.13;100.00;100056.03;686153;28;1544;-61
2023/07/12 00:53:25;;;;;;;2.55;1.30;;;;;;;21.11;100.00;100049.97;689565;28;834;-62
2023/07/12 00:53:46;;;;;;;2.50;1.20;;;;;;;21.08;100.00;100043.03;687948;28;1518;-61
2023/07/12 00:54:13;;;;;;;3.30;1.20;;;;;;;21.06;100.00;100042.28;686743;28;1314;-61
2023/07/12 00:54:51;;;;;;;2.20;1.17;;;;;;;21.03;100.00;100031.81;685096;28;825;-61
2023/07/12 00:55:49;;;;;;;2.85;1.40;;;;;;;21.03;100.00;100037.13;683718;28;4355;-61
2023/07/12 00:56:11;;;;;;;2.63;1.30;;;;;;;21.01;100.00;100047.84;686412;28;1159;-62
2023/07/12 00:56:31;;;;;;;2.90;1.20;;;;;;;21.01;100.00;100041.69;689077;28;929;-62
2023/07/12 00:56:52;;;;;;;2.50;1.23;;;;;;;21.01;100.00;100045.19;688508;28;1657;-62
2023/07/12 00:57:13;;;;;;;2.05;1.30;;;;;;;21.00;100.00;100043.47;688179;28;1218;-62
2023/07/12 00:57:33;;;;;;;2.50;1.23;;;;;;;21.01;100.00;100047.84;687162;28;1276;-61
2023/07/12 00:57:54;;;;;;;2.92;1.40;;;;;;;20.99;100.00;100047.09;686021;28;1465;-61
2023/07/12 00:58:14;;;;;;;2.67;1.20;;;;;;;21.02;100.00;100048.72;686684;28;4446;-61
2023/07/12 00:58:48;;;;;;;2.50;1.27;;;;;;;21.04;100.00;100045.00;687245;28;1106;-61
2023/07/12 00:59:20;;;;;;;2.53;1.30;;;;;;;21.14;100.00;100049.78;688889;28;1648;-61
2023/07/12 00:59:41;;;;;;;2.45;1.10;;;;;;;21.17;100.00;100050.47;686866;28;2197;-61
2023/07/12 01:00:10;;;;;;;1.87;1.17;;;;;;;21.15;100.00;100048.84;689099;28;913;-62
2023/07/12 01:00:30;;;;;;;2.65;1.30;;;;;;;21.14;100.00;100052.44;687346;28;889;-62
2023/07/12 01:00:52;;;;;;;3.28;1.40;;;;;;;21.12;100.00;100046.38;688046;28;1563;-62
2023/07/12 01:01:14;;;;;;;3.47;1.20;;;;;;;21.08;100.00;100057.16;687203;28;4453;-62
2023/07/12 01:01:37;;;;;;;2.22;1.20;;;;;;;21.08;100.00;100051.00;689726;28;822;-62
2023/07/12 01:02:01;;;;;;;2.20;1.50;;;;;;;21.04;100.00;100055.63;690886;28;1815;-62
2023/07/12 01:02:24;;;;;;;2.70;1.58;;;;;;;21.08;100.00;100062.47;690197;28;3146;-62
2023/07/12 01:02:46;;;;;;;2.55;1.27;;;;;;;21.07;100.00;100063.47;687264;28;1664;-62
2023/07/12 01:03:12;;;;;;;2.83;1.20;;;;;;;21.06;100.00;100060.88;686894;28;1462;-62
2023/07/12 01:03:38;;;;;;;2.47;1.15;;;;;;;21.10;100.00;100065.09;686982;28;1609;-62
2023/07/12 01:03:59;;;;;;;2.55;1.20;;;;;;;21.13;100.00;100058.69;685738;28;1465;-62
2023/07/12 01:04:26;;;;;;;3.67;1.30;;;;;;;21.11;100.00;100064.13;688715;28;4363;-62
2023/07/12 01:04:49;;;;;;;3.00;1.30;;;;;;;21.14;100.00;100068.41;687254;28;1480;-62
2023/07/12 01:05:12;;;;;;;2.42;1.15;;;;;;;21.18;100.00;100067.28;687582;28;987;-62
2023/07/12 01:05:32;;;;;;;2.45;1.13;;;;;;;21.20;100.00;100060.94;688001;28;1447;-62
2023/07/12 01:05:53;;;;;;;2.63;1.30;;;;;;;21.18;100.00;100056.66;687435;28;1519;-62
2023/07/12 01:06:17;;;;;;;2.53;1.30;;;;;;;21.14;100.00;100060.44;688577;28;1146;-62
2023/07/12 01:06:38;;;;;;;1.95;1.02;;;;;;;21.18;100.00;100046.00;689685;28;845;-63
2023/07/12 01:07:00;;;;;;;2.40;1.20;;;;;;;21.21;100.00;100053.78;687466;28;1911;-62
2023/07/12 01:07:22;;;;;;;1.75;1.10;;;;;;;21.17;100.00;100044.28;688132;28;4347;-63
2023/07/12 01:07:43;;;;;;;2.13;1.50;;;;;;;21.24;100.00;100048.31;688790;28;1641;-63
2023/07/12 01:08:03;;;;;;;3.10;1.42;;;;;;;21.23;100.00;100051.91;686683;28;1158;-62
2023/07/12 01:08:27;;;;;;;2.15;1.23;;;;;;;21.20;100.00;100044.13;686810;28;833;-62
2023/07/12 01:08:47;;;;;;;3.13;1.15;;;;;;;21.15;100.00;100047.03;685108;28;1769;-62
2023/07/12 01:09:14;;;;;;;4.07;1.27;;;;;;;21.18;100.00;100044.19;683589;28;1410;-62
2023/07/12 01:09:34;;;;;;;2.17;1.15;;;;;;;21.14;100.00;100042.66;684724;28;996;-62
2023/07/12 01:09:55;;;;;;;3.43;1.73;;;;;;;21.11;100.00;100045.50;686748;28;1480;-62
2023/07/12 01:10:15;;;;;;;2.73;1.43;;;;;;;21.08;100.00;100051.00;688905;28;4293;-62
2023/07/12 01:10:36;;;;;;;2.33;1.40;;;;;;;21.11;100.00;100044.66;689573;28;1357;-62
2023/07/12 01:10:59;;;;;;;2.83;1.50;;;;;;;21.10;100.00;100049.13;688021;28;1544;-62
2023/07/12 01:11:22;;;;;;;3.08;1.23;;;;;;;21.07;100.00;100047.50;687087;28;1489;-62
2023/07/12 01:11:42;;;;;;;2.30;1.13;;;;;;;21.05;100.00;100049.38;687132;28;1742;-62
2023/07/12 01:12:03;;;;;;;3.40;1.10;;;;;;;21.02;100.00;100057.53;689510;28;897;-62
2023/07/12 01:12:24;;;;;;;1.88;1.10;;;;;;;21.00;100.00;100058.56;686340;28;1310;-62
2023/07/12 01:12:45;;;;;;;2.40;1.20;;;;;;;20.99;100.00;100059.50;686041;28;1520;-63
2023/07/12 01:13:07;;;;;;;2.03;1.17;;;;;;;21.03;100.00;100069.88;685394;28;1027;-62
2023/07/12 01:13:29;;;;;;;2.53;1.23;;;;;;;21.04;100.00;100065.41;686755;28;4426;-62
2023/07/12 01:13:50;;;;;;;2.72;1.40;;;;;;;21.02;100.00;100073.50;682245;28;1588;-63
2023/07/12 01:14:14;;;;;;;1.90;1.25;;;;;;;21.04;100.00;100078.72;683905;28;873;-63
2023/07/12 01:14:35;;;;;;;2.33;1.33;;;;;;;21.08;100.00;100074.94;683273;28;1213;-63
2023/07/12 01:14:58;;;;;;;2.40;1.20;;;;;;;21.06;100.00;100080.34;686059;28;1388;-63
2023/07/12 01:15:20;;;;;;;2.50;1.20;;;;;;;21.02;100.00;100083.28;686727;28;1291;-62
2023/07/12 01:15:40;;;;;;;3.03;1.40;;;;;;;21.07;100.00;100079.41;686811;28;1511;-63
2023/07/12 01:16:02;;;;;;;2.63;1.30;;;;;;;21.12;100.00;100083.59;686116;28;3302;-63
2023/07/12 01:16:23;;;;;;;2.15;1.20;;;;;;;21.09;100.00;100088.13;686472;28;5006;-62
2023/07/12 01:16:48;;;;;;;2.50;1.20;;;;;;;21.08;100.00;100080.25;684006;28;1506;-62
2023/07/12 01:17:09;;;;;;;2.40;1.27;;;;;;;21.12;100.00;100072.97;683437;28;901;-62
2023/07/12 01:17:29;;;;;;;2.77;1.37;;;;;;;21.19;100.00;100079.63;685898;28;889;-62
2023/07/12 01:17:50;;;;;;;3.40;1.60;;;;;;;21.16;100.00;100085.97;684597;28;1512;-62
2023/07/12 01:18:10;;;;;;;2.63;1.30;;;;;;;21.13;100.00;100078.19;686448;28;983;-62
2023/07/12 01:18:31;;;;;;;3.05;1.10;;;;;;;21.07;100.00;100081.19;681745;28;1406;-62
2023/07/12 01:18:52;;;;;;;2.60;1.10;;;;;;;21.09;100.00;100079.31;683471;28;1497;-63
2023/07/12 01:19:13;;;;;;;2.05;1.10;;;;;;;21.03;100.00;100076.97;682196;28;4549;-62
2023/07/12 01:19:36;;;;;;;1.75;1.00;;;;;;;21.01;100.00;100078.91;681475;28;853;-62
2023/07/12 01:19:56;;;;;;;1.88;1.05;;;;;;;21.09;100.00;100082.81;680432;28;1460;-62
2023/07/12 01:20:16;;;;;;;2.53;1.20;;;;;;;21.05;100.00;100075.13;682940;28;1446;-62
2023/07/12 01:20:40;;;;;;;2.37;1.20;;;;;;;20.98;100.00;100085.22;686708;28;999;-62
2023/07/12 01:21:22;;;;;;;2.17;1.33;;;;;;;21.03;100.00;100077.88;685318;28;857;-62
2023/07/12 01:21:49;;;;;;;2.78;1.30;;;;;;;21.02;100.00;100083.28;682137;28;1662;-63
2023/07/12 01:22:10;;;;;;;1.85;1.02;;;;;;;20.97;100.00;100085.31;684322;28;4362;-62
2023/07/12 01:22:30;;;;;;;2.40;1.20;;;;;;;20.94;100.00;100081.03;686893;28;837;-63
2023/07/12 01:22:52;;;;;;;2.33;1.27;;;;;;;20.92;100.00;100069.63;684042;28;1675;-62
2023/07/12 01:23:13;;;;;;;2.70;1.20;;;;;;;20.99;100.00;100073.66;683857;28;1316;-63
2023/07/12 01:23:34;;;;;;;2.08;1.10;;;;;;;21.02;100.00;100067.31;686611;28;798;-62
2023/07/12 01:23:54;;;;;;;2.00;1.20;;;;;;;21.03;100.00;100063.69;683157;28;1595;-62
2023/07/12 01:24:16;;;;;;;2.10;1.20;;;;;;;21.09;100.00;100064.22;684279;28;1231;-62
2023/07/12 01:24:39;;;;;;;3.33;1.52;;;;;;;21.13;100.00;100061.38;682270;28;1283;-62
2023/07/12 01:24:59;;;;;;;2.63;1.33;;;;;;;21.13;100.00;100064.03;682546;28;1722;-62
2023/07/12 01:25:40;;;;;;;1.83;1.10;;;;;;;21.16;100.00;100054.06;683822;28;4540;-63
2023/07/12 01:26:14;;;;;;;3.20;1.30;;;;;;;21.18;100.00;100046.00;683552;28;1489;-62
2023/07/12 01:26:43;;;;;;;1.95;1.10;;;;;;;21.14;100.00;100053.28;686379;28;1484;-63
2023/07/12 01:27:14;;;;;;;1.63;1.10;;;;;;;21.09;100.00;100053.56;688475;28;826;-62
2023/07/12 01:27:34;;;;;;;2.97;1.20;;;;;;;21.05;100.00;100049.38;691812;28;1550;-62
2023/07/12 01:27:54;;;;;;;3.25;1.30;;;;;;;21.04;100.00;100050.31;688228;28;1999;-62
2023/07/12 01:28:15;;;;;;;2.43;1.20;;;;;;;21.03;100.00;100048.63;686663;28;4558;-62
2023/07/12 01:28:35;;;;;;;2.90;1.23;;;;;;;21.08;100.00;100043.88;686884;28;1046;-62
2023/07/12 01:29:01;;;;;;;2.72;1.20;;;;;;;21.05;100.00;100045.88;685267;28;1361;-62
2023/07/12 01:29:21;;;;;;;2.05;1.20;;;;;;;21.01;100.00;100053.16;682666;28;1180;-62
2023/07/12 01:29:42;;;;;;;2.45;1.13;;;;;;;20.97;100.00;100059.59;683029;28;1366;-63
2023/07/12 01:30:05;;;;;;;3.25;1.30;;;;;;;20.94;100.00;100056.28;680300;29;1278;-62
2023/07/12 01:30:27;;;;;;;2.85;1.30;;;;;;;20.91;100.00;100060.81;679177;29;921;-62
2023/07/12 01:30:48;;;;;;;2.65;1.40;;;;;;;20.85;100.00;100058.53;675605;29;1488;-62
2023/07/12 01:31:09;;;;;;;2.13;1.30;;;;;;;20.82;100.00;100064.00;678766;28;4730;-61
2023/07/12 01:31:30;;;;;;;2.40;1.40;;;;;;;20.82;100.00;100061.34;681659;29;1525;-61
2023/07/12 01:31:51;;;;;;;2.08;1.20;;;;;;;20.83;100.00;100070.19;680576;28;1510;-63
2023/07/12 01:32:11;;;;;;;2.97;1.30;;;;;;;20.83;100.00;100083.47;684580;28;916;-62
2023/07/12 01:32:32;;;;;;;2.60;1.20;;;;;;;20.83;100.00;100080.81;687398;28;1097;-62
2023/07/12 01:32:53;;;;;;;2.15;1.30;;;;;;;20.81;100.00;100090.63;688259;28;2200;-63
2023/07/12 01:33:13;;;;;;;2.37;1.10;;;;;;;20.80;100.00;100095.09;686267;28;1350;-62
2023/07/12 01:33:34;;;;;;;2.90;1.30;;;;;;;20.87;100.00;100085.84;682827;28;1289;-62
2023/07/12 01:33:56;;;;;;;2.55;1.25;;;;;;;20.90;100.00;100096.28;683357;28;1430;-62
2023/07/12 01:34:17;;;;;;;3.50;1.30;;;;;;;20.87;100.00;100088.50;681753;28;4344;-62
2023/07/12 01:34:37;;;;;;;2.47;1.20;;;;;;;20.88;100.00;100086.72;685872;28;905;-63
2023/07/12 01:34:58;;;;;;;2.33;1.20;;;;;;;20.88;100.00;100081.41;684794;28;1643;-63
2023/07/12 01:35:18;;;;;;;2.60;1.30;;;;;;;20.85;100.00;100090.41;686806;28;952;-63
2023/07/12 01:35:39;;;;;;;2.83;1.30;;;;;;;20.85;100.00;100086.88;685246;28;1167;-62
2023/07/12 01:35:59;;;;;;;3.10;1.30;;;;;;;20.84;100.00;100091.34;682262;28;1769;-62
2023/07/12 01:36:21;;;;;;;2.33;1.20;;;;;;;20.82;100.00;100089.72;678584;29;1127;-62
2023/07/12 01:36:43;;;;;;;2.70;1.30;;;;;;;20.79;100.00;100095.19;678297;28;1486;-62
2023/07/12 01:37:05;;;;;;;2.65;1.23;;;;;;;20.78;100.00;100098.78;679079;28;1155;-62
2023/07/12 01:37:25;;;;;;;2.40;1.13;;;;;;;20.80;100.00;100100.41;678401;29;4262;-62
2023/07/12 01:37:46;;;;;;;3.05;1.30;;;;;;;20.84;100.00;100094.00;681303;28;1695;-63
2023/07/12 01:38:07;;;;;;;2.20;1.20;;;;;;;20.82;100.00;100093.22;682941;28;1355;-63
2023/07/12 01:38:30;;;;;;;2.85;1.20;;;;;;;20.80;100.00;100089.78;685538;28;883;-62
2023/07/12 01:38:53;;;;;;;3.20;1.20;;;;;;;20.86;100.00;100089.44;682201;28;2089;-62
2023/07/12 01:39:14;;;;;;;2.17;1.10;;;;;;;20.99;100.00;100078.97;686225;28;1105;-62
2023/07/12 01:39:34;;;;;;;3.58;1.10;;;;;;;21.08;100.00;100074.94;685927;28;1342;-63
2023/07/12 01:39:55;;;;;;;2.20;1.13;;;;;;;21.09;100.00;100071.34;686351;28;1466;-62
2023/07/12 01:40:16;;;;;;;2.17;1.20;;;;;;;21.09;100.00;100063.38;685727;28;4538;-62
2023/07/12 01:40:36;;;;;;;2.25;1.20;;;;;;;21.02;100.00;100062.00;684746;28;830;-62
2023/07/12 01:40:58;;;;;;;2.15;1.10;;;;;;;20.89;100.00;100061.84;686122;28;1232;-62
2023/07/12 01:41:18;;;;;;;3.07;1.30;;;;;;;20.85;100.00;100060.31;686020;28;1417;-62
2023/07/12 01:41:39;;;;;;;3.10;1.30;;;;;;;20.83;100.00;100062.22;686478;28;905;-62
2023/07/12 01:41:59;;;;;;;2.70;1.20;;;;;;;20.80;100.00;100057.06;686000;28;1599;-62
2023/07/12 01:42:20;;;;;;;3.53;1.20;;;;;;;20.78;100.00;100058.94;684934;28;5585;-62
2023/07/12 01:42:40;;;;;;;3.63;1.30;;;;;;;20.79;100.00;100060.66;684508;28;836;-62
2023/07/12 01:43:01;;;;;;;4.10;1.48;;;;;;;20.81;100.00;100058.75;686090;28;1612;-62
2023/07/12 01:43:21;;;;;;;3.97;1.57;;;;;;;20.85;100.00;100045.25;687829;28;4362;-62
2023/07/12 01:43:42;;;;;;;3.10;1.40;;;;;;;20.95;100.00;100057.97;687163;28;1490;-62
2023/07/12 01:44:02;;;;;;;2.83;1.30;;;;;;;20.95;100.00;100055.31;688564;28;915;-62
2023/07/12 01:44:24;;;;;;;2.63;1.30;;;;;;;20.90;100.00;100055.59;688560;28;1404;-62
2023/07/12 01:44:45;;;;;;;3.38;1.27;;;;;;;20.83;100.00;100051.59;683725;28;1248;-63
2023/07/12 01:45:07;;;;;;;3.40;1.27;;;;;;;20.80;100.00;100046.44;683948;28;1078;-62
2023/07/12 01:45:27;;;;;;;3.08;1.20;;;;;;;20.76;100.00;100061.69;685680;28;1016;-62
2023/07/12 01:45:47;;;;;;;2.37;1.20;;;;;;;20.74;100.00;100052.94;682054;28;1587;-62
2023/07/12 01:46:08;;;;;;;4.18;1.20;;;;;;;20.77;100.00;100050.13;681378;28;4544;-57
2023/07/12 01:46:31;;;;;;;3.45;1.40;;;;;;;20.85;100.00;100055.00;683260;28;1417;-62
2023/07/12 01:46:52;;;;;;;1.75;1.10;;;;;;;20.86;100.00;100054.06;684285;28;1549;-63
2023/07/12 01:47:12;;;;;;;2.23;1.30;;;;;;;20.83;100.00;100059.56;681975;28;1490;-62
2023/07/12 01:47:33;;;;;;;2.65;1.30;;;;;;;20.86;100.00;100062.03;684337;28;920;-63
2023/07/12 01:47:56;;;;;;;1.98;1.20;;;;;;;20.84;100.00;100063.94;682147;28;1465;-62
2023/07/12 01:48:17;;;;;;;2.63;1.33;;;;;;;20.80;100.00;100057.94;682321;28;921;-62
2023/07/12 01:48:37;;;;;;;3.30;1.40;;;;;;;20.77;100.00;100063.41;684348;28;813;-61
2023/07/12 01:48:57;;;;;;;2.92;1.30;;;;;;;20.69;100.00;100055.88;683513;28;1528;-62